sensor_id;sensor_type;location;lat;lon;timestamp;P1;durP1;ratioP1;P2;durP2;ratioP2
71622;SDS011;59473;53.214;5.728;2022-08-04T00:00:25;14.10;;;3.60;;
71622;SDS011;59473;53.214;5.728;2022-08-04T00:03:01;11.70;;;3.70;;
71622;SDS011;59473;53.214;5.728;2022-08-04T00:10:28;14.55;;;4.15;;
71622;SDS011;59473;53.214;5.728;2022-08-04T00:12:54;10.55;;;3.83;;
71622;SDS011;59473;53.214;5.728;2022-08-04T00:15:21;12.43;;;4.00;;
71622;SDS011;59473;53.214;5.728;2022-08-04T00:17:48;11.15;;;4.20;;
71622;SDS011;59473;53.214;5.728;2022-08-04T00:20:17;17.60;;;4.25;;
71622;SDS011;59473;53.214;5.728;2022-08-04T00:22:42;15.25;;;4.57;;
71622;SDS011;59473;53.214;5.728;2022-08-04T00:25:09;12.15;;;3.97;;
71622;SDS011;59473;53.214;5.728;2022-08-04T00:27:34;11.27;;;4.07;;
71622;SDS011;59473;53.214;5.728;2022-08-04T00:29:59;12.33;;;3.73;;
71622;SDS011;59473;53.214;5.728;2022-08-04T00:32:25;13.63;;;3.80;;
71622;SDS011;59473;53.214;5.728;2022-08-04T00:34:51;12.25;;;3.47;;
71622;SDS011;59473;53.214;5.728;2022-08-04T00:37:18;8.73;;;3.33;;
71622;SDS011;59473;53.214;5.728;2022-08-04T00:39:45;11.17;;;3.40;;
71622;SDS011;59473;53.214;5.728;2022-08-04T00:52:55;15.13;;;4.63;;
71622;SDS011;59473;53.214;5.728;2022-08-04T00:55:50;12.38;;;4.70;;
71622;SDS011;59473;53.214;5.728;2022-08-04T00:58:26;12.63;;;3.53;;
71622;SDS011;59473;53.214;5.728;2022-08-04T01:00:56;10.47;;;3.63;;
71622;SDS011;59473;53.214;5.728;2022-08-04T01:16:03;12.27;;;3.83;;
71622;SDS011;59473;53.214;5.728;2022-08-04T01:18:32;11.13;;;4.40;;
71622;SDS011;59473;53.214;5.728;2022-08-04T01:24:25;10.53;;;4.10;;
71622;SDS011;59473;53.214;5.728;2022-08-04T01:29:03;11.48;;;4.72;;
71622;SDS011;59473;53.214;5.728;2022-08-04T01:31:49;13.05;;;4.35;;
71622;SDS011;59473;53.214;5.728;2022-08-04T01:34:18;17.47;;;4.40;;
71622;SDS011;59473;53.214;5.728;2022-08-04T01:36:45;12.75;;;4.03;;
71622;SDS011;59473;53.214;5.728;2022-08-04T01:39:14;12.48;;;4.40;;
71622;SDS011;59473;53.214;5.728;2022-08-04T01:41:58;12.63;;;4.10;;
71622;SDS011;59473;53.214;5.728;2022-08-04T01:44:26;10.88;;;4.40;;
71622;SDS011;59473;53.214;5.728;2022-08-04T01:46:51;13.50;;;5.03;;
71622;SDS011;59473;53.214;5.728;2022-08-04T01:49:16;12.05;;;4.70;;
71622;SDS011;59473;53.214;5.728;2022-08-04T01:51:43;14.17;;;4.07;;
71622;SDS011;59473;53.214;5.728;2022-08-04T01:54:09;14.23;;;5.05;;
71622;SDS011;59473;53.214;5.728;2022-08-04T01:56:35;11.60;;;4.53;;
71622;SDS011;59473;53.214;5.728;2022-08-04T01:59:01;13.70;;;4.63;;
71622;SDS011;59473;53.214;5.728;2022-08-04T02:01:27;13.02;;;4.68;;
71622;SDS011;59473;53.214;5.728;2022-08-04T02:03:52;15.27;;;4.70;;
71622;SDS011;59473;53.214;5.728;2022-08-04T02:09:11;15.00;;;4.88;;
71622;SDS011;59473;53.214;5.728;2022-08-04T02:11:40;13.00;;;4.38;;
71622;SDS011;59473;53.214;5.728;2022-08-04T02:14:20;14.93;;;4.75;;
71622;SDS011;59473;53.214;5.728;2022-08-04T02:17:14;17.45;;;5.18;;
71622;SDS011;59473;53.214;5.728;2022-08-04T02:20:14;11.30;;;4.43;;
71622;SDS011;59473;53.214;5.728;2022-08-04T02:22:38;12.02;;;4.18;;
71622;SDS011;59473;53.214;5.728;2022-08-04T02:25:05;12.48;;;4.03;;
71622;SDS011;59473;53.214;5.728;2022-08-04T02:27:35;11.55;;;4.43;;
71622;SDS011;59473;53.214;5.728;2022-08-04T02:30:04;12.27;;;4.75;;
71622;SDS011;59473;53.214;5.728;2022-08-04T02:32:31;9.93;;;4.03;;
71622;SDS011;59473;53.214;5.728;2022-08-04T02:35:04;12.50;;;4.90;;
71622;SDS011;59473;53.214;5.728;2022-08-04T02:37:31;16.02;;;5.20;;
71622;SDS011;59473;53.214;5.728;2022-08-04T02:39:57;12.57;;;4.40;;
71622;SDS011;59473;53.214;5.728;2022-08-04T02:42:23;11.55;;;4.70;;
71622;SDS011;59473;53.214;5.728;2022-08-04T02:44:48;16.43;;;5.20;;
71622;SDS011;59473;53.214;5.728;2022-08-04T02:47:14;14.50;;;4.55;;
71622;SDS011;59473;53.214;5.728;2022-08-04T02:49:41;15.48;;;4.60;;
71622;SDS011;59473;53.214;5.728;2022-08-04T02:52:09;10.85;;;4.40;;
71622;SDS011;59473;53.214;5.728;2022-08-04T02:54:38;11.40;;;4.60;;
71622;SDS011;59473;53.214;5.728;2022-08-04T02:57:03;14.05;;;4.43;;
71622;SDS011;59473;53.214;5.728;2022-08-04T02:59:36;12.38;;;4.80;;
71622;SDS011;59473;53.214;5.728;2022-08-04T03:02:06;11.48;;;4.70;;
71622;SDS011;59473;53.214;5.728;2022-08-04T03:09:54;13.77;;;4.50;;
71622;SDS011;59473;53.214;5.728;2022-08-04T03:22:49;11.73;;;5.15;;
71622;SDS011;59473;53.214;5.728;2022-08-04T03:28:16;15.07;;;4.55;;
71622;SDS011;59473;53.214;5.728;2022-08-04T03:41:26;12.00;;;4.57;;
71622;SDS011;59473;53.214;5.728;2022-08-04T03:49:40;11.32;;;4.35;;
71622;SDS011;59473;53.214;5.728;2022-08-04T04:00:29;11.50;;;4.45;;
71622;SDS011;59473;53.214;5.728;2022-08-04T04:18:35;12.30;;;4.03;;
71622;SDS011;59473;53.214;5.728;2022-08-04T04:24:05;11.50;;;3.80;;
71622;SDS011;59473;53.214;5.728;2022-08-04T04:32:12;9.95;;;3.92;;
71622;SDS011;59473;53.214;5.728;2022-08-04T04:34:57;10.88;;;3.95;;
71622;SDS011;59473;53.214;5.728;2022-08-04T04:45:09;9.45;;;3.70;;
71622;SDS011;59473;53.214;5.728;2022-08-04T04:47:41;13.63;;;4.20;;
71622;SDS011;59473;53.214;5.728;2022-08-04T04:52:55;13.77;;;4.40;;
71622;SDS011;59473;53.214;5.728;2022-08-04T04:55:26;10.73;;;3.85;;
71622;SDS011;59473;53.214;5.728;2022-08-04T04:57:54;17.58;;;3.80;;
71622;SDS011;59473;53.214;5.728;2022-08-04T05:00:21;14.50;;;3.97;;
71622;SDS011;59473;53.214;5.728;2022-08-04T05:03:54;10.65;;;3.58;;
71622;SDS011;59473;53.214;5.728;2022-08-04T05:05:48;10.57;;;3.60;;
71622;SDS011;59473;53.214;5.728;2022-08-04T05:08:23;9.05;;;3.53;;
71622;SDS011;59473;53.214;5.728;2022-08-04T05:13:36;12.07;;;5.27;;
71622;SDS011;59473;53.214;5.728;2022-08-04T05:18:41;10.65;;;4.13;;
71622;SDS011;59473;53.214;5.728;2022-08-04T05:21:17;12.68;;;4.22;;
71622;SDS011;59473;53.214;5.728;2022-08-04T05:23:43;12.05;;;4.50;;
71622;SDS011;59473;53.214;5.728;2022-08-04T05:26:13;14.67;;;5.23;;
71622;SDS011;59473;53.214;5.728;2022-08-04T05:28:40;11.75;;;4.13;;
71622;SDS011;59473;53.214;5.728;2022-08-04T05:31:11;10.50;;;4.22;;
71622;SDS011;59473;53.214;5.728;2022-08-04T05:33:50;24.08;;;7.85;;
71622;SDS011;59473;53.214;5.728;2022-08-04T05:36:17;19.02;;;6.22;;
71622;SDS011;59473;53.214;5.728;2022-08-04T05:38:44;15.97;;;5.50;;
71622;SDS011;59473;53.214;5.728;2022-08-04T05:41:11;16.77;;;5.22;;
71622;SDS011;59473;53.214;5.728;2022-08-04T05:43:37;16.45;;;5.28;;
71622;SDS011;59473;53.214;5.728;2022-08-04T05:46:05;15.90;;;5.47;;
71622;SDS011;59473;53.214;5.728;2022-08-04T05:48:31;12.30;;;5.40;;
71622;SDS011;59473;53.214;5.728;2022-08-04T05:50:56;17.90;;;4.95;;
71622;SDS011;59473;53.214;5.728;2022-08-04T05:53:22;15.35;;;5.35;;
71622;SDS011;59473;53.214;5.728;2022-08-04T05:55:48;15.48;;;5.10;;
71622;SDS011;59473;53.214;5.728;2022-08-04T05:58:14;18.33;;;5.40;;
71622;SDS011;59473;53.214;5.728;2022-08-04T06:00:41;14.90;;;5.63;;
71622;SDS011;59473;53.214;5.728;2022-08-04T06:03:06;15.00;;;5.40;;
71622;SDS011;59473;53.214;5.728;2022-08-04T06:05:33;12.73;;;5.53;;
71622;SDS011;59473;53.214;5.728;2022-08-04T06:07:59;14.48;;;5.68;;
71622;SDS011;59473;53.214;5.728;2022-08-04T06:10:24;14.32;;;5.60;;
71622;SDS011;59473;53.214;5.728;2022-08-04T06:13:12;13.52;;;5.60;;
71622;SDS011;59473;53.214;5.728;2022-08-04T06:15:36;13.23;;;5.72;;
71622;SDS011;59473;53.214;5.728;2022-08-04T06:18:03;16.40;;;5.20;;
71622;SDS011;59473;53.214;5.728;2022-08-04T06:20:32;14.55;;;5.35;;
71622;SDS011;59473;53.214;5.728;2022-08-04T06:22:59;21.55;;;7.30;;
71622;SDS011;59473;53.214;5.728;2022-08-04T06:25:28;17.90;;;6.75;;
71622;SDS011;59473;53.214;5.728;2022-08-04T06:27:55;13.57;;;6.70;;
71622;SDS011;59473;53.214;5.728;2022-08-04T06:30:21;13.60;;;5.45;;
71622;SDS011;59473;53.214;5.728;2022-08-04T06:32:50;13.20;;;5.68;;
71622;SDS011;59473;53.214;5.728;2022-08-04T06:35:24;11.27;;;5.72;;
71622;SDS011;59473;53.214;5.728;2022-08-04T06:37:51;11.38;;;5.32;;
71622;SDS011;59473;53.214;5.728;2022-08-04T06:40:17;12.52;;;5.28;;
71622;SDS011;59473;53.214;5.728;2022-08-04T06:42:43;14.27;;;5.70;;
71622;SDS011;59473;53.214;5.728;2022-08-04T06:45:09;10.35;;;5.15;;
71622;SDS011;59473;53.214;5.728;2022-08-04T06:47:36;12.97;;;5.30;;
71622;SDS011;59473;53.214;5.728;2022-08-04T06:50:01;14.82;;;5.28;;
71622;SDS011;59473;53.214;5.728;2022-08-04T06:52:28;12.90;;;5.13;;
71622;SDS011;59473;53.214;5.728;2022-08-04T06:54:54;13.73;;;5.37;;
71622;SDS011;59473;53.214;5.728;2022-08-04T06:57:26;12.60;;;5.70;;
71622;SDS011;59473;53.214;5.728;2022-08-04T06:59:54;13.02;;;5.32;;
71622;SDS011;59473;53.214;5.728;2022-08-04T07:02:23;12.37;;;5.07;;
71622;SDS011;59473;53.214;5.728;2022-08-04T07:04:49;14.77;;;5.40;;
71622;SDS011;59473;53.214;5.728;2022-08-04T07:07:15;15.27;;;5.63;;
71622;SDS011;59473;53.214;5.728;2022-08-04T07:09:40;12.70;;;4.90;;
71622;SDS011;59473;53.214;5.728;2022-08-04T07:12:06;13.63;;;5.10;;
71622;SDS011;59473;53.214;5.728;2022-08-04T07:14:31;11.10;;;5.45;;
71622;SDS011;59473;53.214;5.728;2022-08-04T07:17:00;12.98;;;5.10;;
71622;SDS011;59473;53.214;5.728;2022-08-04T07:19:26;11.73;;;5.07;;
71622;SDS011;59473;53.214;5.728;2022-08-04T07:21:51;11.80;;;5.47;;
71622;SDS011;59473;53.214;5.728;2022-08-04T07:24:16;11.87;;;3.90;;
71622;SDS011;59473;53.214;5.728;2022-08-04T07:26:42;8.37;;;3.57;;
71622;SDS011;59473;53.214;5.728;2022-08-04T07:29:07;9.67;;;2.73;;
71622;SDS011;59473;53.214;5.728;2022-08-04T07:31:34;8.88;;;2.83;;
71622;SDS011;59473;53.214;5.728;2022-08-04T07:34:00;9.90;;;2.60;;
71622;SDS011;59473;53.214;5.728;2022-08-04T07:36:26;7.20;;;2.57;;
71622;SDS011;59473;53.214;5.728;2022-08-04T07:38:52;10.80;;;2.63;;
71622;SDS011;59473;53.214;5.728;2022-08-04T07:41:21;8.17;;;2.80;;
71622;SDS011;59473;53.214;5.728;2022-08-04T07:43:47;8.73;;;2.22;;
71622;SDS011;59473;53.214;5.728;2022-08-04T07:46:13;7.27;;;2.43;;
71622;SDS011;59473;53.214;5.728;2022-08-04T07:48:38;7.13;;;2.40;;
71622;SDS011;59473;53.214;5.728;2022-08-04T07:51:03;9.20;;;2.30;;
71622;SDS011;59473;53.214;5.728;2022-08-04T07:53:29;9.33;;;2.30;;
71622;SDS011;59473;53.214;5.728;2022-08-04T07:55:54;10.07;;;2.50;;
71622;SDS011;59473;53.214;5.728;2022-08-04T07:58:20;8.53;;;2.00;;
71622;SDS011;59473;53.214;5.728;2022-08-04T08:00:45;10.80;;;2.90;;
71622;SDS011;59473;53.214;5.728;2022-08-04T08:03:11;8.10;;;2.22;;
71622;SDS011;59473;53.214;5.728;2022-08-04T08:05:37;9.50;;;2.17;;
71622;SDS011;59473;53.214;5.728;2022-08-04T08:08:03;6.78;;;1.70;;
71622;SDS011;59473;53.214;5.728;2022-08-04T08:10:28;6.53;;;1.80;;
71622;SDS011;59473;53.214;5.728;2022-08-04T08:12:53;7.93;;;1.80;;
71622;SDS011;59473;53.214;5.728;2022-08-04T08:15:20;11.52;;;2.10;;
71622;SDS011;59473;53.214;5.728;2022-08-04T08:17:45;9.27;;;1.70;;
71622;SDS011;59473;53.214;5.728;2022-08-04T08:20:10;6.30;;;1.70;;
71622;SDS011;59473;53.214;5.728;2022-08-04T08:22:36;9.57;;;1.63;;
71622;SDS011;59473;53.214;5.728;2022-08-04T08:25:01;6.45;;;1.80;;
71622;SDS011;59473;53.214;5.728;2022-08-04T08:27:26;9.00;;;1.80;;
71622;SDS011;59473;53.214;5.728;2022-08-04T08:29:52;7.00;;;1.93;;
71622;SDS011;59473;53.214;5.728;2022-08-04T08:32:17;8.60;;;2.10;;
71622;SDS011;59473;53.214;5.728;2022-08-04T08:34:43;9.27;;;2.05;;
71622;SDS011;59473;53.214;5.728;2022-08-04T08:37:15;7.53;;;2.08;;
71622;SDS011;59473;53.214;5.728;2022-08-04T08:39:54;8.10;;;2.40;;
71622;SDS011;59473;53.214;5.728;2022-08-04T08:42:26;6.65;;;1.77;;
71622;SDS011;59473;53.214;5.728;2022-08-04T08:50:22;6.97;;;1.43;;
71622;SDS011;59473;53.214;5.728;2022-08-04T09:03:40;4.78;;;1.35;;
71622;SDS011;59473;53.214;5.728;2022-08-04T09:06:27;7.20;;;1.30;;
71622;SDS011;59473;53.214;5.728;2022-08-04T09:08:59;5.37;;;1.37;;
71622;SDS011;59473;53.214;5.728;2022-08-04T09:11:29;3.75;;;1.30;;
71622;SDS011;59473;53.214;5.728;2022-08-04T09:14:04;3.92;;;0.90;;
71622;SDS011;59473;53.214;5.728;2022-08-04T09:16:38;5.28;;;1.00;;
71622;SDS011;59473;53.214;5.728;2022-08-04T09:27:23;7.90;;;1.80;;
71622;SDS011;59473;53.214;5.728;2022-08-04T09:30:06;6.47;;;1.52;;
71622;SDS011;59473;53.214;5.728;2022-08-04T09:38:09;6.57;;;1.70;;
71622;SDS011;59473;53.214;5.728;2022-08-04T09:46:04;8.93;;;1.70;;
71622;SDS011;59473;53.214;5.728;2022-08-04T09:48:33;6.60;;;1.53;;
71622;SDS011;59473;53.214;5.728;2022-08-04T09:51:00;6.00;;;1.30;;
71622;SDS011;59473;53.214;5.728;2022-08-04T09:56:13;5.43;;;1.15;;
71622;SDS011;59473;53.214;5.728;2022-08-04T09:58:53;7.45;;;1.67;;
71622;SDS011;59473;53.214;5.728;2022-08-04T10:01:24;8.23;;;1.90;;
71622;SDS011;59473;53.214;5.728;2022-08-04T10:04:12;5.07;;;1.40;;
71622;SDS011;59473;53.214;5.728;2022-08-04T10:14:31;6.10;;;2.08;;
71622;SDS011;59473;53.214;5.728;2022-08-04T10:17:22;5.77;;;1.37;;
71622;SDS011;59473;53.214;5.728;2022-08-04T10:19:52;4.45;;;1.70;;
71622;SDS011;59473;53.214;5.728;2022-08-04T10:22:22;4.88;;;1.60;;
71622;SDS011;59473;53.214;5.728;2022-08-04T10:27:15;8.27;;;1.93;;
71622;SDS011;59473;53.214;5.728;2022-08-04T10:29:46;5.32;;;1.30;;
71622;SDS011;59473;53.214;5.728;2022-08-04T10:32:24;6.90;;;1.50;;
71622;SDS011;59473;53.214;5.728;2022-08-04T10:37:22;5.40;;;1.45;;
71622;SDS011;59473;53.214;5.728;2022-08-04T10:40:04;7.00;;;1.67;;
71622;SDS011;59473;53.214;5.728;2022-08-04T10:45:39;9.10;;;1.40;;
71622;SDS011;59473;53.214;5.728;2022-08-04T10:51:16;7.85;;;1.92;;
71622;SDS011;59473;53.214;5.728;2022-08-04T10:53:38;5.97;;;1.40;;
71622;SDS011;59473;53.214;5.728;2022-08-04T10:56:14;4.93;;;1.50;;
71622;SDS011;59473;53.214;5.728;2022-08-04T10:58:52;6.78;;;1.55;;
71622;SDS011;59473;53.214;5.728;2022-08-04T11:01:22;6.93;;;1.50;;
71622;SDS011;59473;53.214;5.728;2022-08-04T11:03:56;8.25;;;1.80;;
71622;SDS011;59473;53.214;5.728;2022-08-04T11:06:22;5.97;;;1.27;;
71622;SDS011;59473;53.214;5.728;2022-08-04T11:08:49;6.27;;;1.63;;
71622;SDS011;59473;53.214;5.728;2022-08-04T11:13:45;5.53;;;1.20;;
71622;SDS011;59473;53.214;5.728;2022-08-04T11:16:23;4.93;;;1.15;;
71622;SDS011;59473;53.214;5.728;2022-08-04T11:21:52;5.72;;;1.30;;
71622;SDS011;59473;53.214;5.728;2022-08-04T11:24:29;4.27;;;1.17;;
71622;SDS011;59473;53.214;5.728;2022-08-04T11:26:59;5.80;;;1.23;;
71622;SDS011;59473;53.214;5.728;2022-08-04T11:31:56;7.07;;;1.33;;
71622;SDS011;59473;53.214;5.728;2022-08-04T11:34:24;8.07;;;1.23;;
71622;SDS011;59473;53.214;5.728;2022-08-04T11:39:27;6.07;;;1.23;;
71622;SDS011;59473;53.214;5.728;2022-08-04T11:44:48;6.05;;;1.42;;
71622;SDS011;59473;53.214;5.728;2022-08-04T11:49:53;7.73;;;1.37;;
71622;SDS011;59473;53.214;5.728;2022-08-04T11:52:19;6.70;;;1.50;;
71622;SDS011;59473;53.214;5.728;2022-08-04T11:54:46;9.70;;;2.22;;
71622;SDS011;59473;53.214;5.728;2022-08-04T11:57:12;5.70;;;1.48;;
71622;SDS011;59473;53.214;5.728;2022-08-04T11:59:38;7.90;;;1.47;;
71622;SDS011;59473;53.214;5.728;2022-08-04T12:02:21;7.47;;;1.52;;
71622;SDS011;59473;53.214;5.728;2022-08-04T12:04:57;5.93;;;1.40;;
71622;SDS011;59473;53.214;5.728;2022-08-04T12:12:42;4.70;;;1.27;;
71622;SDS011;59473;53.214;5.728;2022-08-04T12:15:21;5.75;;;1.33;;
71622;SDS011;59473;53.214;5.728;2022-08-04T12:20:18;6.00;;;1.38;;
71622;SDS011;59473;53.214;5.728;2022-08-04T12:22:47;6.90;;;1.80;;
71622;SDS011;59473;53.214;5.728;2022-08-04T12:25:29;7.68;;;1.42;;
71622;SDS011;59473;53.214;5.728;2022-08-04T12:30:26;10.15;;;1.80;;
71622;SDS011;59473;53.214;5.728;2022-08-04T12:33:04;11.43;;;2.00;;
71622;SDS011;59473;53.214;5.728;2022-08-04T12:35:34;7.00;;;1.83;;
71622;SDS011;59473;53.214;5.728;2022-08-04T12:38:06;10.13;;;2.15;;
71622;SDS011;59473;53.214;5.728;2022-08-04T12:40:44;10.32;;;1.90;;
71622;SDS011;59473;53.214;5.728;2022-08-04T12:43:23;10.80;;;2.03;;
71622;SDS011;59473;53.214;5.728;2022-08-04T12:45:54;9.65;;;1.83;;
71622;SDS011;59473;53.214;5.728;2022-08-04T12:48:21;9.13;;;1.83;;
71622;SDS011;59473;53.214;5.728;2022-08-04T12:50:51;9.73;;;1.88;;
71622;SDS011;59473;53.214;5.728;2022-08-04T12:53:18;8.55;;;2.35;;
71622;SDS011;59473;53.214;5.728;2022-08-04T12:55:45;8.80;;;2.15;;
71622;SDS011;59473;53.214;5.728;2022-08-04T12:58:13;9.23;;;2.10;;
71622;SDS011;59473;53.214;5.728;2022-08-04T13:00:39;9.93;;;1.87;;
71622;SDS011;59473;53.214;5.728;2022-08-04T13:03:05;9.68;;;2.20;;
71622;SDS011;59473;53.214;5.728;2022-08-04T13:05:32;10.13;;;1.80;;
71622;SDS011;59473;53.214;5.728;2022-08-04T13:07:58;12.38;;;2.33;;
71622;SDS011;59473;53.214;5.728;2022-08-04T13:10:25;9.80;;;2.38;;
71622;SDS011;59473;53.214;5.728;2022-08-04T13:12:54;10.88;;;2.30;;
71622;SDS011;59473;53.214;5.728;2022-08-04T13:15:20;9.43;;;2.70;;
71622;SDS011;59473;53.214;5.728;2022-08-04T13:20:24;13.82;;;2.67;;
71622;SDS011;59473;53.214;5.728;2022-08-04T13:22:50;8.18;;;2.08;;
71622;SDS011;59473;53.214;5.728;2022-08-04T13:25:15;9.67;;;2.30;;
71622;SDS011;59473;53.214;5.728;2022-08-04T13:27:41;14.53;;;3.20;;
71622;SDS011;59473;53.214;5.728;2022-08-04T13:30:11;11.55;;;2.38;;
71622;SDS011;59473;53.214;5.728;2022-08-04T13:32:36;10.43;;;2.60;;
71622;SDS011;59473;53.214;5.728;2022-08-04T13:35:02;10.60;;;3.13;;
71622;SDS011;59473;53.214;5.728;2022-08-04T13:37:33;11.20;;;2.88;;
71622;SDS011;59473;53.214;5.728;2022-08-04T13:40:07;6.13;;;2.05;;
71622;SDS011;59473;53.214;5.728;2022-08-04T13:42:33;8.60;;;2.20;;
71622;SDS011;59473;53.214;5.728;2022-08-04T13:44:59;7.72;;;2.20;;
71622;SDS011;59473;53.214;5.728;2022-08-04T13:47:29;6.70;;;2.10;;
71622;SDS011;59473;53.214;5.728;2022-08-04T13:52:29;7.38;;;2.20;;
71622;SDS011;59473;53.214;5.728;2022-08-04T13:54:55;6.30;;;2.10;;
71622;SDS011;59473;53.214;5.728;2022-08-04T13:57:30;8.70;;;2.80;;
71622;SDS011;59473;53.214;5.728;2022-08-04T14:00:04;5.18;;;1.77;;
71622;SDS011;59473;53.214;5.728;2022-08-04T14:02:33;4.50;;;1.48;;
71622;SDS011;59473;53.214;5.728;2022-08-04T14:05:04;6.95;;;1.40;;
71622;SDS011;59473;53.214;5.728;2022-08-04T14:07:32;3.78;;;1.10;;
71622;SDS011;59473;53.214;5.728;2022-08-04T14:10:09;4.55;;;1.20;;
71622;SDS011;59473;53.214;5.728;2022-08-04T14:12:34;5.38;;;1.13;;
71622;SDS011;59473;53.214;5.728;2022-08-04T14:15:00;4.70;;;1.17;;
71622;SDS011;59473;53.214;5.728;2022-08-04T14:17:25;4.93;;;1.10;;
71622;SDS011;59473;53.214;5.728;2022-08-04T14:19:55;5.40;;;1.50;;
71622;SDS011;59473;53.214;5.728;2022-08-04T14:22:27;5.38;;;1.17;;
71622;SDS011;59473;53.214;5.728;2022-08-04T14:24:56;7.15;;;1.08;;
71622;SDS011;59473;53.214;5.728;2022-08-04T14:27:21;4.75;;;1.10;;
71622;SDS011;59473;53.214;5.728;2022-08-04T14:29:47;4.17;;;1.00;;
71622;SDS011;59473;53.214;5.728;2022-08-04T14:32:12;5.53;;;1.10;;
71622;SDS011;59473;53.214;5.728;2022-08-04T14:34:38;4.70;;;0.98;;
71622;SDS011;59473;53.214;5.728;2022-08-04T14:37:07;5.22;;;1.02;;
71622;SDS011;59473;53.214;5.728;2022-08-04T14:39:39;5.10;;;1.00;;
71622;SDS011;59473;53.214;5.728;2022-08-04T14:42:05;7.18;;;1.42;;
71622;SDS011;59473;53.214;5.728;2022-08-04T14:44:30;6.00;;;1.40;;
71622;SDS011;59473;53.214;5.728;2022-08-04T14:46:56;6.22;;;1.00;;
71622;SDS011;59473;53.214;5.728;2022-08-04T14:49:23;5.82;;;1.20;;
71622;SDS011;59473;53.214;5.728;2022-08-04T14:51:56;4.63;;;0.90;;
71622;SDS011;59473;53.214;5.728;2022-08-04T14:54:27;5.10;;;1.00;;
71622;SDS011;59473;53.214;5.728;2022-08-04T14:56:54;3.15;;;1.08;;
71622;SDS011;59473;53.214;5.728;2022-08-04T14:59:19;4.03;;;1.17;;
71622;SDS011;59473;53.214;5.728;2022-08-04T15:01:45;3.77;;;0.90;;
71622;SDS011;59473;53.214;5.728;2022-08-04T15:04:13;7.15;;;1.58;;
71622;SDS011;59473;53.214;5.728;2022-08-04T15:06:38;5.87;;;1.30;;
71622;SDS011;59473;53.214;5.728;2022-08-04T15:09:07;5.80;;;1.40;;
71622;SDS011;59473;53.214;5.728;2022-08-04T15:11:32;5.32;;;1.10;;
71622;SDS011;59473;53.214;5.728;2022-08-04T15:13:58;2.58;;;0.82;;
71622;SDS011;59473;53.214;5.728;2022-08-04T15:16:25;7.03;;;1.53;;
71622;SDS011;59473;53.214;5.728;2022-08-04T15:18:50;6.50;;;1.38;;
71622;SDS011;59473;53.214;5.728;2022-08-04T15:21:16;4.17;;;1.07;;
71622;SDS011;59473;53.214;5.728;2022-08-04T15:23:41;5.40;;;1.33;;
71622;SDS011;59473;53.214;5.728;2022-08-04T15:26:08;7.37;;;1.60;;
71622;SDS011;59473;53.214;5.728;2022-08-04T15:28:35;4.82;;;1.20;;
71622;SDS011;59473;53.214;5.728;2022-08-04T15:31:01;6.63;;;1.60;;
71622;SDS011;59473;53.214;5.728;2022-08-04T15:33:27;6.57;;;1.30;;
71622;SDS011;59473;53.214;5.728;2022-08-04T15:35:54;4.68;;;1.40;;
71622;SDS011;59473;53.214;5.728;2022-08-04T15:38:25;5.60;;;1.15;;
71622;SDS011;59473;53.214;5.728;2022-08-04T15:40:57;6.95;;;1.20;;
71622;SDS011;59473;53.214;5.728;2022-08-04T15:46:01;5.05;;;1.48;;
71622;SDS011;59473;53.214;5.728;2022-08-04T15:48:29;3.53;;;1.10;;
71622;SDS011;59473;53.214;5.728;2022-08-04T15:53:20;7.27;;;1.40;;
71622;SDS011;59473;53.214;5.728;2022-08-04T15:55:45;6.37;;;1.30;;
71622;SDS011;59473;53.214;5.728;2022-08-04T15:58:11;8.10;;;1.40;;
71622;SDS011;59473;53.214;5.728;2022-08-04T16:03:39;4.72;;;1.30;;
71622;SDS011;59473;53.214;5.728;2022-08-04T16:11:30;4.55;;;1.23;;
71622;SDS011;59473;53.214;5.728;2022-08-04T16:18:54;3.67;;;1.27;;
71622;SDS011;59473;53.214;5.728;2022-08-04T16:21:27;5.10;;;1.30;;
71622;SDS011;59473;53.214;5.728;2022-08-04T16:29:03;8.93;;;1.63;;
71622;SDS011;59473;53.214;5.728;2022-08-04T16:34:29;4.60;;;0.90;;
71622;SDS011;59473;53.214;5.728;2022-08-04T16:36:55;5.20;;;1.10;;
71622;SDS011;59473;53.214;5.728;2022-08-04T16:39:20;5.15;;;1.20;;
71622;SDS011;59473;53.214;5.728;2022-08-04T16:41:45;5.23;;;1.30;;
71622;SDS011;59473;53.214;5.728;2022-08-04T16:46:55;5.32;;;1.38;;
71622;SDS011;59473;53.214;5.728;2022-08-04T16:49:21;7.18;;;2.13;;
71622;SDS011;59473;53.214;5.728;2022-08-04T16:51:47;5.73;;;1.40;;
71622;SDS011;59473;53.214;5.728;2022-08-04T16:54:12;6.00;;;1.40;;
71622;SDS011;59473;53.214;5.728;2022-08-04T16:56:37;6.67;;;1.20;;
71622;SDS011;59473;53.214;5.728;2022-08-04T16:59:09;5.80;;;0.90;;
71622;SDS011;59473;53.214;5.728;2022-08-04T17:01:35;6.30;;;1.40;;
71622;SDS011;59473;53.214;5.728;2022-08-04T17:04:01;4.60;;;1.40;;
71622;SDS011;59473;53.214;5.728;2022-08-04T17:06:38;6.80;;;1.30;;
71622;SDS011;59473;53.214;5.728;2022-08-04T17:09:04;5.72;;;1.50;;
71622;SDS011;59473;53.214;5.728;2022-08-04T17:11:30;4.72;;;1.30;;
71622;SDS011;59473;53.214;5.728;2022-08-04T17:13:56;6.30;;;1.60;;
71622;SDS011;59473;53.214;5.728;2022-08-04T17:16:21;7.90;;;1.20;;
71622;SDS011;59473;53.214;5.728;2022-08-04T17:18:50;5.20;;;1.13;;
71622;SDS011;59473;53.214;5.728;2022-08-04T17:21:17;8.20;;;1.30;;
71622;SDS011;59473;53.214;5.728;2022-08-04T17:23:47;8.27;;;1.13;;
71622;SDS011;59473;53.214;5.728;2022-08-04T17:26:17;5.22;;;1.48;;
71622;SDS011;59473;53.214;5.728;2022-08-04T17:28:45;6.33;;;1.33;;
71622;SDS011;59473;53.214;5.728;2022-08-04T17:31:11;5.80;;;1.10;;
71622;SDS011;59473;53.214;5.728;2022-08-04T17:33:37;7.95;;;1.30;;
71622;SDS011;59473;53.214;5.728;2022-08-04T17:36:03;7.70;;;1.40;;
71622;SDS011;59473;53.214;5.728;2022-08-04T17:38:34;7.25;;;1.92;;
71622;SDS011;59473;53.214;5.728;2022-08-04T17:41:00;7.72;;;1.65;;
71622;SDS011;59473;53.214;5.728;2022-08-04T17:48:44;6.38;;;1.75;;
71622;SDS011;59473;53.214;5.728;2022-08-04T17:51:13;6.35;;;1.52;;
71622;SDS011;59473;53.214;5.728;2022-08-04T17:53:39;8.25;;;2.13;;
71622;SDS011;59473;53.214;5.728;2022-08-04T17:56:04;12.83;;;2.00;;
71622;SDS011;59473;53.214;5.728;2022-08-04T17:58:29;5.70;;;1.67;;
71622;SDS011;59473;53.214;5.728;2022-08-04T18:00:58;8.00;;;1.93;;
71622;SDS011;59473;53.214;5.728;2022-08-04T18:03:24;9.50;;;1.95;;
71622;SDS011;59473;53.214;5.728;2022-08-04T18:05:50;8.57;;;1.75;;
71622;SDS011;59473;53.214;5.728;2022-08-04T18:08:21;11.38;;;2.03;;
71622;SDS011;59473;53.214;5.728;2022-08-04T18:10:46;6.97;;;2.00;;
71622;SDS011;59473;53.214;5.728;2022-08-04T18:13:12;9.25;;;1.80;;
71622;SDS011;59473;53.214;5.728;2022-08-04T18:15:37;7.87;;;1.97;;
71622;SDS011;59473;53.214;5.728;2022-08-04T18:18:13;9.57;;;1.70;;
71622;SDS011;59473;53.214;5.728;2022-08-04T18:20:39;8.98;;;1.80;;
71622;SDS011;59473;53.214;5.728;2022-08-04T18:23:04;7.97;;;2.05;;
71622;SDS011;59473;53.214;5.728;2022-08-04T18:25:30;8.82;;;1.88;;
71622;SDS011;59473;53.214;5.728;2022-08-04T18:27:55;9.77;;;2.08;;
71622;SDS011;59473;53.214;5.728;2022-08-04T18:30:21;8.40;;;2.23;;
71622;SDS011;59473;53.214;5.728;2022-08-04T18:32:47;8.00;;;2.08;;
71622;SDS011;59473;53.214;5.728;2022-08-04T18:35:13;7.27;;;1.87;;
71622;SDS011;59473;53.214;5.728;2022-08-04T18:37:38;8.37;;;2.10;;
71622;SDS011;59473;53.214;5.728;2022-08-04T18:40:04;8.30;;;1.88;;
71622;SDS011;59473;53.214;5.728;2022-08-04T18:42:30;10.13;;;2.13;;
71622;SDS011;59473;53.214;5.728;2022-08-04T18:44:55;7.37;;;1.63;;
71622;SDS011;59473;53.214;5.728;2022-08-04T18:47:20;7.83;;;2.10;;
71622;SDS011;59473;53.214;5.728;2022-08-04T18:49:46;9.43;;;2.23;;
71622;SDS011;59473;53.214;5.728;2022-08-04T18:52:11;9.67;;;1.77;;
71622;SDS011;59473;53.214;5.728;2022-08-04T18:54:36;9.23;;;1.75;;